Time;durP1;ratioP1;P1;durP2;ratioP2;P2;SDS_P1;SDS_P2;PMS_P1;PMS_P2;Temp;Humidity;BMP_temperature;BMP_pressure;BME280_temperature;BME280_humidity;BME280_pressure;Samples;Min_cycle;Max_cycle;Signal;HPM_P1;HPM_P2
2023/10/27 00:01:10;;;;;;;0.00;0.00;;;;;;;8.29;100.00;97757.03;4944004;28;20122;-76
2023/10/27 00:03:36;;;;;;;0.00;0.00;;;;;;;8.38;100.00;97766.84;4968491;28;20031;-73
2023/10/27 00:06:01;;;;;;;0.00;0.00;;;;;;;8.35;100.00;97750.31;4958281;28;20103;-73
2023/10/27 00:08:36;;;;;;;0.00;0.00;;;;;;;8.40;100.00;97747.47;4933425;28;20502;-73
2023/10/27 00:11:06;;;;;;;0.00;0.00;;;;;;;8.54;100.00;97764.50;4921274;28;20065;-73
2023/10/27 00:13:32;;;;;;;0.10;0.10;;;;;;;8.46;100.00;97745.44;4946032;28;20106;-74
2023/10/27 00:15:57;;;;;;;0.10;0.10;;;;;;;8.45;100.00;97750.06;4923235;28;21544;-73
2023/10/27 00:18:23;;;;;;;0.10;0.10;;;;;;;8.56;100.00;97765.00;4930731;29;20035;-73
2023/10/27 00:20:54;;;;;;;0.00;0.00;;;;;;;8.41;100.00;97735.47;4910413;29;20045;-74
2023/10/27 00:23:21;;;;;;;0.00;0.00;;;;;;;8.45;100.00;97738.38;4924187;28;20039;-74
2023/10/27 00:25:47;;;;;;;0.00;0.00;;;;;;;8.51;100.00;97748.81;4922384;29;20130;-74
2023/10/27 00:28:12;;;;;;;0.10;0.10;;;;;;;8.38;100.00;97728.72;4911374;28;20037;-74
2023/10/27 00:30:37;;;;;;;0.00;0.00;;;;;;;8.55;100.00;97760.66;4932072;29;20023;-73
2023/10/27 00:33:03;;;;;;;0.00;0.00;;;;;;;8.36;100.00;97730.16;4943817;28;20473;-73
2023/10/27 00:35:28;;;;;;;0.10;0.10;;;;;;;8.56;100.00;97754.09;4925184;28;20062;-74
2023/10/27 00:37:54;;;;;;;0.00;0.00;;;;;;;8.55;100.00;97744.31;4914950;29;20038;-73
2023/10/27 00:40:19;;;;;;;0.00;0.00;;;;;;;8.46;100.00;97740.78;4936236;28;20042;-72
2023/10/27 00:42:45;;;;;;;0.00;0.00;;;;;;;8.50;100.00;97744.47;4899260;29;20373;-74
2023/10/27 00:45:10;;;;;;;0.00;0.00;;;;;;;8.46;100.00;97740.78;4906459;28;20031;-74
2023/10/27 00:47:35;;;;;;;0.00;0.00;;;;;;;8.32;100.00;97734.63;4926041;29;20034;-73
2023/10/27 00:50:01;;;;;;;0.00;0.00;;;;;;;8.38;100.00;97755.13;4920063;29;20031;-74
2023/10/27 00:52:27;;;;;;;0.00;0.00;;;;;;;8.19;100.00;97734.44;4919177;28;20461;-74
2023/10/27 00:54:54;;;;;;;0.00;0.00;;;;;;;8.36;100.00;97757.38;4912159;29;20490;-74
2023/10/27 00:57:22;;;;;;;0.00;0.00;;;;;;;8.34;100.00;97749.53;4923046;28;20102;-73
2023/10/27 00:59:50;;;;;;;0.00;0.00;;;;;;;8.38;100.00;97760.59;4942765;28;20039;-74
2023/10/27 01:02:17;;;;;;;0.00;0.00;;;;;;;8.39;100.00;97754.03;4924272;28;20122;-74
2023/10/27 01:04:42;;;;;;;0.00;0.00;;;;;;;8.44;100.00;97753.91;4926925;29;20016;-73
2023/10/27 01:07:08;;;;;;;0.00;0.00;;;;;;;8.42;100.00;97744.44;4912857;28;20034;-72
2023/10/27 01:09:33;;;;;;;0.00;0.00;;;;;;;8.43;100.00;97751.47;4936975;29;20154;-73
2023/10/27 01:12:01;;;;;;;0.00;0.00;;;;;;;8.49;100.00;97748.31;4905013;29;20142;-73
2023/10/27 01:14:27;;;;;;;0.00;0.00;;;;;;;8.53;100.00;97746.56;4933451;28;20031;-72
2023/10/27 01:16:53;;;;;;;0.00;0.00;;;;;;;8.63;100.00;97741.91;4916782;28;20019;-72
2023/10/27 01:19:19;;;;;;;0.00;0.00;;;;;;;8.69;100.00;97743.38;4896134;28;20470;-73
2023/10/27 01:21:44;;;;;;;0.00;0.00;;;;;;;8.79;100.00;97743.06;4924333;29;20392;-72
2023/10/27 01:24:09;;;;;;;0.00;0.00;;;;;;;8.80;100.00;97738.41;4896528;28;20085;-74
2023/10/27 01:26:35;;;;;;;0.00;0.00;;;;;;;8.88;100.00;97743.06;4898188;28;20046;-72
2023/10/27 01:29:00;;;;;;;0.00;0.00;;;;;;;8.87;100.00;97744.97;4900828;29;20047;-72
2023/10/27 01:31:26;;;;;;;0.00;0.00;;;;;;;8.84;100.00;97745.63;4938025;28;20026;-72
2023/10/27 01:33:51;;;;;;;0.00;0.00;;;;;;;8.77;100.00;97726.22;4942746;28;20019;-73
2023/10/27 01:36:17;;;;;;;0.00;0.00;;;;;;;8.80;100.00;97733.75;4928216;29;20023;-73
2023/10/27 01:38:42;;;;;;;0.00;0.00;;;;;;;8.84;100.00;97739.38;4906588;28;20537;-72
2023/10/27 01:41:08;;;;;;;0.00;0.00;;;;;;;8.79;100.00;97732.19;4926599;28;20110;-71
2023/10/27 01:43:33;;;;;;;0.00;0.00;;;;;;;8.85;100.00;97746.44;4925259;28;20027;-72
2023/10/27 01:45:59;;;;;;;0.10;0.10;;;;;;;8.74;100.00;97729.59;4934280;28;20086;-72
2023/10/27 01:48:24;;;;;;;0.00;0.00;;;;;;;8.77;100.00;97739.84;4948736;28;20478;-72
2023/10/27 01:50:49;;;;;;;0.00;0.00;;;;;;;8.68;100.00;97730.88;4924733;29;20058;-73
2023/10/27 01:53:16;;;;;;;0.00;0.00;;;;;;;8.71;100.00;97735.69;4902665;29;20035;-72
2023/10/27 01:55:41;;;;;;;0.00;0.00;;;;;;;8.66;100.00;97733.09;4918414;28;20031;-71
2023/10/27 01:58:08;;;;;;;0.00;0.00;;;;;;;8.54;100.00;97720.94;4924619;29;20023;-72
2023/10/27 02:00:33;;;;;;;0.00;0.00;;;;;;;8.50;100.00;97719.97;4941399;28;20024;-72
2023/10/27 02:02:58;;;;;;;0.00;0.00;;;;;;;8.45;100.00;97709.22;4911253;29;20051;-71
2023/10/27 02:05:24;;;;;;;0.00;0.00;;;;;;;8.40;100.00;97706.63;4897660;28;20032;-71
2023/10/27 02:07:49;;;;;;;0.00;0.00;;;;;;;8.35;100.00;97709.47;4894758;28;20096;-72
2023/10/27 02:10:15;;;;;;;0.00;0.00;;;;;;;8.25;100.00;97696.16;4894928;29;20027;-72
2023/10/27 02:12:40;;;;;;;0.10;0.10;;;;;;;8.28;100.00;97700.97;4933463;28;20027;-71
2023/10/27 02:15:06;;;;;;;0.00;0.00;;;;;;;8.11;100.00;97686.22;4932390;29;20027;-72
2023/10/27 02:17:32;;;;;;;0.00;0.00;;;;;;;8.12;100.00;97695.19;4911616;28;20553;-72
2023/10/27 02:19:58;;;;;;;0.00;0.00;;;;;;;8.14;100.00;97712.00;4932260;28;20217;-72
2023/10/27 02:22:23;;;;;;;0.00;0.00;;;;;;;8.00;100.00;97684.91;4916639;29;20034;-71
2023/10/27 02:24:51;;;;;;;0.00;0.00;;;;;;;7.91;100.00;97678.63;4915513;28;20030;-73
2023/10/27 02:27:16;;;;;;;0.00;0.00;;;;;;;7.91;100.00;97689.53;4919007;28;20068;-72
2023/10/27 02:29:42;;;;;;;0.10;0.10;;;;;;;7.95;100.00;97704.09;4932231;28;20086;-74
2023/10/27 02:32:07;;;;;;;0.00;0.00;;;;;;;7.78;100.00;97689.34;4943584;28;20082;-73
2023/10/27 02:34:33;;;;;;;0.00;0.00;;;;;;;7.74;100.00;97682.91;4938958;28;20409;-73
2023/10/27 02:37:08;;;;;;;;;;;;;;;;;;;;;
2023/10/27 02:39:34;;;;;;;0.00;0.00;;;;;;;7.74;100.00;97693.78;4943985;28;20031;-75
2023/10/27 02:41:59;;;;;;;0.00;0.00;;;;;;;7.76;100.00;97696.19;4916972;28;20371;-75
2023/10/27 02:44:25;;;;;;;0.00;0.00;;;;;;;7.73;100.00;97685.94;4907166;29;20062;-74
2023/10/27 02:47:01;;;;;;;0.00;0.00;;;;;;;7.74;100.00;97699.22;4923172;28;20533;-73
2023/10/27 02:49:26;;;;;;;0.00;0.00;;;;;;;7.58;100.00;97673.53;4935356;28;20087;-74
2023/10/27 02:51:52;;;;;;;0.05;0.05;;;;;;;7.68;100.00;97697.75;4941937;28;20035;-73
2023/10/27 02:54:17;;;;;;;0.00;0.00;;;;;;;7.67;100.00;97704.31;4898527;29;20519;-72
2023/10/27 02:56:42;;;;;;;0.00;0.00;;;;;;;7.66;100.00;97697.28;4911035;28;20047;-72
2023/10/27 02:59:09;;;;;;;0.00;0.00;;;;;;;7.57;100.00;97693.72;4897677;29;20038;-72
2023/10/27 03:01:34;;;;;;;0.00;0.00;;;;;;;7.54;100.00;97688.91;4896176;28;20035;-73
2023/10/27 03:04:00;;;;;;;0.00;0.00;;;;;;;7.46;100.00;97696.72;4929649;28;20043;-73
2023/10/27 03:06:25;;;;;;;0.10;0.10;;;;;;;7.40;100.00;97683.53;4932906;29;20027;-72
2023/10/27 03:08:50;;;;;;;0.05;0.05;;;;;;;7.32;100.00;97693.28;4917578;28;20059;-72
2023/10/27 03:11:16;;;;;;;0.00;0.00;;;;;;;7.27;100.00;97680.63;4952625;28;20034;-72
2023/10/27 03:13:41;;;;;;;0.00;0.00;;;;;;;7.35;100.00;97698.09;4915226;28;20504;-72
2023/10/27 03:16:07;;;;;;;0.05;0.05;;;;;;;7.37;100.00;97689.63;4916728;28;20100;-72
2023/10/27 03:18:32;;;;;;;0.00;0.00;;;;;;;7.39;100.00;97682.75;4924639;28;20114;-72
2023/10/27 03:20:59;;;;;;;0.00;0.00;;;;;;;7.38;100.00;97683.88;4931355;28;20035;-72
2023/10/27 03:23:26;;;;;;;0.00;0.00;;;;;;;7.35;100.00;97687.22;4960616;28;20019;-71
2023/10/27 03:25:52;;;;;;;0.00;0.00;;;;;;;7.31;100.00;97680.78;4956044;28;20027;-71
2023/10/27 03:28:17;;;;;;;0.00;0.00;;;;;;;7.24;100.00;97673.09;4943346;28;20038;-73
2023/10/27 03:30:44;;;;;;;0.10;0.10;;;;;;;7.29;100.00;97688.47;4904526;29;20030;-72
2023/10/27 03:33:10;;;;;;;0.00;0.00;;;;;;;7.24;100.00;97677.69;4958171;28;20030;-72
2023/10/27 03:35:37;;;;;;;0.00;0.00;;;;;;;7.23;100.00;97679.63;4912462;29;20078;-73
2023/10/27 03:38:03;;;;;;;0.00;0.00;;;;;;;7.21;100.00;97664.75;4943044;28;20023;-72
2023/10/27 03:40:29;;;;;;;0.00;0.00;;;;;;;7.36;100.00;97672.50;4947940;28;20026;-72
2023/10/27 03:42:54;;;;;;;0.00;0.00;;;;;;;7.29;100.00;97650.41;4963498;28;20355;-73
2023/10/27 03:45:20;;;;;;;0.00;0.00;;;;;;;7.43;100.00;97656.56;4932637;28;20031;-73
2023/10/27 03:47:45;;;;;;;0.00;0.00;;;;;;;7.56;100.00;97656.75;4942384;28;20109;-73
2023/10/27 03:50:11;;;;;;;0.00;0.00;;;;;;;7.62;100.00;97652.78;4969815;28;20536;-73
2023/10/27 03:52:36;;;;;;;0.00;0.00;;;;;;;7.66;100.00;97642.88;4946457;28;20027;-73
2023/10/27 03:55:02;;;;;;;0.00;0.00;;;;;;;7.63;100.00;97627.19;4927778;28;20149;-72
2023/10/27 03:57:27;;;;;;;0.00;0.00;;;;;;;7.76;100.00;97642.59;4943150;28;20042;-72
2023/10/27 03:59:52;;;;;;;0.10;0.10;;;;;;;7.80;100.00;97638.13;4929778;28;20039;-72
2023/10/27 04:02:18;;;;;;;0.00;0.00;;;;;;;7.84;100.00;97644.53;4922587;28;20027;-73
2023/10/27 04:04:43;;;;;;;0.00;0.00;;;;;;;7.89;100.00;97650.97;4956358;28;20085;-74
2023/10/27 04:07:11;;;;;;;0.00;0.00;;;;;;;7.86;100.00;97642.28;4909374;28;20052;-74
2023/10/27 04:09:39;;;;;;;0.00;0.00;;;;;;;7.86;100.00;97642.28;4925943;28;20055;-72
2023/10/27 04:12:06;;;;;;;0.00;0.00;;;;;;;7.73;100.00;97629.63;4926840;28;20042;-73
2023/10/27 04:14:32;;;;;;;0.00;0.00;;;;;;;7.68;100.00;97636.00;4948119;28;21085;-73
2023/10/27 04:17:00;;;;;;;0.10;0.10;;;;;;;7.66;100.00;97648.31;4921364;28;20027;-72
2023/10/27 04:19:25;;;;;;;0.00;0.00;;;;;;;7.68;100.00;97668.66;4941660;28;20027;-71
2023/10/27 04:21:53;;;;;;;0.00;0.00;;;;;;;7.67;100.00;97679.84;4926227;28;20035;-73
2023/10/27 04:24:18;;;;;;;0.00;0.00;;;;;;;7.55;100.00;97668.75;4924671;28;21183;-74
2023/10/27 04:26:44;;;;;;;0.00;0.00;;;;;;;7.51;100.00;97676.72;4898239;29;20115;-73
2023/10/27 04:29:10;;;;;;;0.00;0.00;;;;;;;7.50;100.00;97688.72;4924110;28;20034;-73
2023/10/27 04:31:35;;;;;;;0.00;0.00;;;;;;;7.41;100.00;97679.72;4913207;29;20024;-74
2023/10/27 04:34:01;;;;;;;0.00;0.00;;;;;;;7.44;100.00;97688.03;4929818;28;20050;-71
2023/10/27 04:36:27;;;;;;;0.00;0.00;;;;;;;7.40;100.00;97694.41;4926797;28;20039;-73
2023/10/27 04:38:52;;;;;;;0.00;0.00;;;;;;;7.44;100.00;97704.34;4911100;29;20461;-73
2023/10/27 04:41:20;;;;;;;0.00;0.00;;;;;;;7.47;100.00;97709.16;4931690;28;20048;-73
2023/10/27 04:43:46;;;;;;;0.10;0.10;;;;;;;7.51;100.00;97712.88;4922939;29;20027;-72
2023/10/27 04:46:11;;;;;;;0.00;0.00;;;;;;;7.56;100.00;97702.97;4923492;28;20075;-72
2023/10/27 04:48:37;;;;;;;0.00;0.00;;;;;;;7.59;100.00;97703.16;4929975;29;20050;-73
2023/10/27 04:51:04;;;;;;;0.00;0.00;;;;;;;7.65;100.00;97709.25;4911255;28;20035;-72
2023/10/27 04:53:32;;;;;;;0.00;0.00;;;;;;;7.61;100.00;97706.38;4881357;29;20019;-72
2023/10/27 04:55:58;;;;;;;0.00;0.00;;;;;;;7.68;100.00;97708.63;4953715;28;20049;-72
2023/10/27 04:58:24;;;;;;;0.00;0.00;;;;;;;7.73;100.00;97705.78;4933567;28;20031;-72
2023/10/27 05:00:50;;;;;;;0.00;0.00;;;;;;;7.78;100.00;97705.66;4897347;29;20039;-71
2023/10/27 05:03:16;;;;;;;0.00;0.00;;;;;;;7.81;100.00;97704.22;4932382;28;20758;-72
2023/10/27 05:05:41;;;;;;;0.00;0.00;;;;;;;7.75;100.00;97698.09;4905853;29;20036;-73
2023/10/27 05:08:07;;;;;;;0.00;0.00;;;;;;;7.71;100.00;97689.00;4937658;28;20089;-73
2023/10/27 05:10:32;;;;;;;0.00;0.00;;;;;;;7.80;100.00;97706.13;4945382;28;20370;-73
2023/10/27 05:12:58;;;;;;;0.00;0.00;;;;;;;7.88;100.00;97712.72;4934237;28;20015;-74
2023/10/27 05:15:27;;;;;;;0.00;0.00;;;;;;;7.82;100.00;97694.94;4959761;28;20035;-73
2023/10/27 05:17:55;;;;;;;0.10;0.10;;;;;;;7.91;100.00;97703.13;4949404;28;20389;-74
2023/10/27 05:20:20;;;;;;;0.00;0.00;;;;;;;7.95;100.00;97704.09;4952619;28;20038;-73
2023/10/27 05:22:48;;;;;;;0.00;0.00;;;;;;;8.02;100.00;97705.25;4948675;28;20065;-74
2023/10/27 05:25:14;;;;;;;0.10;0.10;;;;;;;8.03;100.00;97700.59;4928227;28;20738;-74
2023/10/27 05:27:39;;;;;;;0.00;0.00;;;;;;;8.09;100.00;97693.91;4947503;28;20035;-72
2023/10/27 05:30:05;;;;;;;0.00;0.00;;;;;;;8.23;100.00;97703.88;4939776;28;20465;-74
2023/10/27 05:32:35;;;;;;;0.00;0.00;;;;;;;8.24;100.00;97694.59;4936180;28;20046;-74
2023/10/27 05:35:04;;;;;;;0.00;0.00;;;;;;;8.39;100.00;97702.28;4936470;28;20358;-74
2023/10/27 05:37:29;;;;;;;0.00;0.00;;;;;;;8.33;100.00;97679.06;4954780;28;20035;-74
2023/10/27 05:39:55;;;;;;;0.00;0.00;;;;;;;8.48;100.00;97699.59;4953844;28;20051;-73
2023/10/27 05:42:20;;;;;;;0.08;0.08;;;;;;;8.39;100.00;97681.28;4940169;28;20046;-74
2023/10/27 05:44:48;;;;;;;0.00;0.00;;;;;;;8.57;100.00;97703.13;4971539;28;20035;-74
2023/10/27 05:47:19;;;;;;;0.00;0.00;;;;;;;8.38;100.00;97662.56;4923514;28;20035;-75
2023/10/27 05:49:54;;;;;;;0.00;0.00;;;;;;;8.41;100.00;97670.09;4961034;28;20040;-74
2023/10/27 05:52:20;;;;;;;0.00;0.00;;;;;;;8.50;100.00;97676.38;4952503;28;20027;-73
2023/10/27 05:54:46;;;;;;;0.00;0.00;;;;;;;8.68;100.00;97695.47;4943420;28;20085;-74
2023/10/27 05:57:11;;;;;;;0.00;0.00;;;;;;;8.62;100.00;97691.31;4968396;28;20462;-72
2023/10/27 05:59:37;;;;;;;0.00;0.00;;;;;;;8.68;100.00;97711.81;4949708;28;20030;-73
2023/10/27 06:02:02;;;;;;;0.00;0.00;;;;;;;8.65;100.00;97704.28;4941348;28;20125;-75
2023/10/27 06:04:28;;;;;;;0.00;0.00;;;;;;;8.72;100.00;97731.84;4921042;28;20478;-73
2023/10/27 06:06:53;;;;;;;0.00;0.00;;;;;;;8.69;100.00;97724.31;4936157;28;21101;-76
2023/10/27 06:09:25;;;;;;;0.00;0.00;;;;;;;8.66;100.00;97727.66;4920934;28;20031;-77
2023/10/27 06:11:50;;;;;;;0.00;0.00;;;;;;;8.60;100.00;97723.50;4920806;28;20127;-75
2023/10/27 06:14:15;;;;;;;0.00;0.00;;;;;;;8.34;100.00;97684.19;4920669;29;20474;-77
2023/10/27 06:16:41;;;;;;;0.00;0.00;;;;;;;8.47;100.00;97708.88;4892915;28;20027;-77
2023/10/27 06:19:06;;;;;;;0.00;0.00;;;;;;;8.58;100.00;97725.75;4913223;28;20086;-76
2023/10/27 06:21:32;;;;;;;0.00;0.00;;;;;;;8.60;100.00;97718.03;4910008;28;20401;-77
2023/10/27 06:23:57;;;;;;;0.00;0.00;;;;;;;8.69;100.00;97711.50;4925695;28;20048;-76
2023/10/27 06:26:25;;;;;;;0.00;0.00;;;;;;;8.74;100.00;97716.75;4911272;28;20066;-76
2023/10/27 06:28:50;;;;;;;0.00;0.00;;;;;;;8.60;100.00;97685.34;4893653;28;20046;-78
2023/10/27 06:31:18;;;;;;;0.00;0.00;;;;;;;8.68;100.00;97687.28;4959030;28;20019;-77
2023/10/27 06:33:43;;;;;;;0.00;0.00;;;;;;;8.74;100.00;97691.44;4901651;28;20035;-77
2023/10/27 06:36:09;;;;;;;0.00;0.00;;;;;;;8.71;100.00;97679.25;4925877;28;20024;-77
2023/10/27 06:38:34;;;;;;;0.00;0.00;;;;;;;8.69;100.00;97686.19;4910659;29;20043;-78
2023/10/27 06:40:59;;;;;;;0.00;0.00;;;;;;;8.70;100.00;97668.69;4941316;28;20024;-79
2023/10/27 06:43:29;;;;;;;0.10;0.10;;;;;;;8.58;100.00;97644.81;4917504;28;20738;-78
2023/10/27 06:45:54;;;;;;;0.00;0.00;;;;;;;8.65;100.00;97666.13;4919650;28;20070;-77
2023/10/27 06:48:22;;;;;;;0.00;0.00;;;;;;;8.70;100.00;97695.94;4949756;28;20119;-77
2023/10/27 06:50:48;;;;;;;0.00;0.00;;;;;;;8.63;100.00;97681.97;4927743;28;20512;-78
2023/10/27 06:53:13;;;;;;;0.00;0.00;;;;;;;8.60;100.00;97679.91;4912007;28;20126;-78
2023/10/27 06:55:41;;;;;;;0.00;0.00;;;;;;;8.54;100.00;97682.81;4941570;28;20475;-77
2023/10/27 07:00:54;;;;;;;0.00;0.00;;;;;;;8.52;100.00;97685.03;4891593;29;20036;-75
2023/10/27 07:03:29;;;;;;;;;;;;;;;;;;;;;
2023/10/27 07:05:57;;;;;;;0.00;0.00;;;;;;;8.49;100.00;97682.16;4923274;28;20035;-76
2023/10/27 07:08:22;;;;;;;0.00;0.00;;;;;;;8.55;100.00;97710.84;4930728;28;20073;-75
2023/10/27 07:10:53;;;;;;;0.00;0.00;;;;;;;8.62;100.00;97721.25;4970663;28;20030;-77
2023/10/27 07:13:18;;;;;;;0.00;0.00;;;;;;;8.56;100.00;97718.69;4951044;28;20031;-76
2023/10/27 07:15:43;;;;;;;0.00;0.00;;;;;;;8.49;100.00;97714.84;4931290;28;20090;-76
2023/10/27 07:18:09;;;;;;;0.00;0.00;;;;;;;8.52;100.00;97725.09;4938377;28;20039;-77
2023/10/27 07:20:41;;;;;;;0.00;0.00;;;;;;;8.35;100.00;97706.75;4930478;28;20038;-76
2023/10/27 07:23:07;;;;;;;0.00;0.00;;;;;;;8.32;100.00;97707.41;4953558;28;20039;-77
2023/10/27 07:25:32;;;;;;;0.10;0.10;;;;;;;8.26;100.00;97719.56;4945878;28;20092;-76
2023/10/27 07:28:00;;;;;;;0.00;0.00;;;;;;;8.31;100.00;97738.47;4918282;29;20030;-76
2023/10/27 07:30:35;;;;;;;;;;;;;;;;;;;;;
2023/10/27 07:33:04;;;;;;;0.00;0.00;;;;;;;8.25;100.00;97750.63;4967945;28;20025;-75
2023/10/27 07:35:31;;;;;;;0.10;0.10;;;;;;;8.35;100.00;97753.88;4955369;28;20030;-75
2023/10/27 07:38:05;;;;;;;0.00;0.00;;;;;;;8.44;100.00;97762.09;4963598;28;20145;-77
2023/10/27 07:40:34;;;;;;;0.00;0.00;;;;;;;8.46;100.00;97757.13;4968174;28;20130;-75
2023/10/27 07:43:15;;;;;;;;;;;;;;;;;;;;;
2023/10/27 07:45:55;;;;;;;;;;;;;;;;;;;;;
2023/10/27 07:48:40;;;;;;;0.00;0.00;;;;;;;8.65;100.00;97731.53;4961757;28;20032;-74
2023/10/27 07:54:02;;;;;;;0.00;0.00;;;;;;;8.84;100.00;97750.28;4944793;28;20035;-75
2023/10/27 07:56:48;;;;;;;0.00;0.00;;;;;;;8.84;100.00;97745.63;4923903;28;20043;-73
2023/10/27 07:59:45;;;;;;;0.00;0.00;;;;;;;9.16;100.00;97789.88;4942114;28;20038;-74
2023/10/27 08:02:53;;;;;;;0.10;0.10;;;;;;;8.96;100.00;97741.47;4944842;28;20022;-74
2023/10/27 08:05:39;;;;;;;0.00;0.00;;;;;;;9.29;100.00;97770.94;4955500;28;20049;-74
2023/10/27 08:08:14;;;;;;;0.00;0.00;;;;;;;9.35;100.00;97775.13;4937533;28;20048;-74
2023/10/27 08:10:49;;;;;;;0.00;0.00;;;;;;;9.40;100.00;97755.84;4924386;28;20035;-75
2023/10/27 08:13:20;;;;;;;0.00;0.00;;;;;;;9.70;100.00;97772.34;4938282;28;20123;-75
2023/10/27 08:15:49;;;;;;;0.00;0.00;;;;;;;9.88;100.00;97771.16;4934941;28;20126;-75
2023/10/27 08:18:15;;;;;;;0.00;0.00;;;;;;;10.12;100.00;97778.78;4942102;28;20474;-75
2023/10/27 08:20:47;;;;;;;0.00;0.00;;;;;;;10.48;100.00;97774.78;4896273;28;20035;-74
2023/10/27 08:23:15;;;;;;;0.00;0.00;;;;;;;10.73;100.00;97782.34;4916013;28;20040;-74
2023/10/27 08:25:48;;;;;;;0.00;0.00;;;;;;;11.00;100.00;97792.78;4912939;28;20502;-75
2023/10/27 08:28:16;;;;;;;0.00;0.00;;;;;;;11.50;100.00;97777.38;4914461;29;20077;-75
2023/10/27 08:30:50;;;;;;;0.00;0.00;;;;;;;12.02;100.00;97770.59;4928202;28;20055;-74
2023/10/27 08:33:15;;;;;;;0.00;0.00;;;;;;;12.81;98.30;97790.69;4944388;28;20020;-71
2023/10/27 08:35:41;;;;;;;0.00;0.00;;;;;;;13.26;95.51;97765.75;4938883;28;20034;-74
2023/10/27 08:38:11;;;;;;;0.00;0.00;;;;;;;15.00;90.67;97776.41;4910004;28;20461;-72
2023/10/27 08:40:37;;;;;;;0.00;0.00;;;;;;;16.93;80.46;97756.22;4923294;28;20039;-74
2023/10/27 08:43:03;;;;;;;0.00;0.00;;;;;;;18.96;71.20;97781.94;4924048;28;21311;-73
2023/10/27 08:45:31;;;;;;;0.00;0.00;;;;;;;21.41;63.07;97781.47;4922290;28;20074;-72
2023/10/27 08:48:01;;;;;;;0.00;0.00;;;;;;;23.65;54.89;97791.63;4915708;28;20079;-73
2023/10/27 08:50:37;;;;;;;;;;;;;;;;;;;;;
2023/10/27 08:53:17;;;;;;;0.00;0.00;;;;;;;23.07;54.49;97786.69;4944469;28;20030;-73
2023/10/27 08:55:42;;;;;;;0.00;0.00;;;;;;;24.45;52.08;97775.31;4933196;28;20106;-74
2023/10/27 08:58:11;;;;;;;0.00;0.00;;;;;;;26.47;47.47;97766.50;4919060;28;20156;-74
2023/10/27 09:00:36;;;;;;;0.00;0.00;;;;;;;28.49;42.69;97782.44;4903095;28;20079;-74
2023/10/27 09:03:35;;;;;;;;;;;;;;;;;;;;;
2023/10/27 09:06:03;;;;;;;0.00;0.00;;;;;;;30.38;38.68;97776.00;4939376;28;20024;-75
2023/10/27 09:08:38;;;;;;;;;;;;;;;;;;;;;
2023/10/27 12:21:06;;;;;;;0.00;0.00;;;;;;;10.65;89.98;97749.28;4907888;29;20395;-77
2023/10/27 12:26:17;;;;;;;0.00;0.00;;;;;;;10.36;94.30;97746.56;4908956;28;20047;-76
2023/10/27 12:28:42;;;;;;;0.00;0.00;;;;;;;10.51;95.47;97765.09;4941847;28;20047;-76
2023/10/27 12:31:25;;;;;;;0.00;0.00;;;;;;;10.67;94.71;97767.28;4946528;28;20512;-76
2023/10/27 12:33:51;;;;;;;0.00;0.00;;;;;;;10.61;95.64;97745.59;4952458;28;20150;-76
2023/10/27 12:36:19;;;;;;;0.00;0.00;;;;;;;10.73;95.47;97753.09;4922886;28;20446;-76
2023/10/27 12:38:47;;;;;;;0.00;0.00;;;;;;;11.03;95.49;97735.81;4933690;28;20123;-76
2023/10/27 12:41:19;;;;;;;0.00;0.00;;;;;;;11.43;95.15;97743.50;4938992;28;20034;-76
2023/10/27 12:43:45;;;;;;;0.00;0.00;;;;;;;11.84;93.86;97741.75;4948444;28;20031;-76
2023/10/27 12:46:10;;;;;;;0.00;0.00;;;;;;;12.17;91.94;97733.50;4944306;28;20488;-76
2023/10/27 12:48:36;;;;;;;0.00;0.00;;;;;;;12.56;89.57;97763.31;4932204;28;20038;-75
2023/10/27 12:51:05;;;;;;;0.00;0.00;;;;;;;12.89;89.53;97776.03;4904473;28;20071;-76
2023/10/27 12:53:31;;;;;;;0.00;0.00;;;;;;;13.08;88.66;97757.03;4937742;28;20107;-76
2023/10/27 12:56:01;;;;;;;0.00;0.00;;;;;;;13.13;87.82;97750.50;4940119;28;20312;-77
2023/10/27 12:58:34;;;;;;;0.00;0.00;;;;;;;13.07;88.00;97738.97;4905929;28;21201;-75
2023/10/27 13:01:07;;;;;;;0.00;0.00;;;;;;;13.07;87.94;97728.00;4931099;28;20485;-75
2023/10/27 13:03:32;;;;;;;0.00;0.00;;;;;;;13.26;87.31;97743.81;4940734;28;21189;-75
2023/10/27 13:05:58;;;;;;;0.00;0.00;;;;;;;13.26;87.05;97743.03;4944593;28;20034;-76
2023/10/27 13:08:23;;;;;;;0.00;0.00;;;;;;;13.36;86.63;97731.56;4941967;28;20046;-77
2023/10/27 13:11:01;;;;;;;0.00;0.00;;;;;;;13.53;86.72;97746.13;4937980;28;20055;-80
2023/10/27 13:13:31;;;;;;;0.00;0.00;;;;;;;13.78;86.12;97742.09;4926737;28;20122;-77
2023/10/27 13:15:56;;;;;;;0.00;0.00;;;;;;;13.85;84.62;97735.19;4942578;28;20166;-76
2023/10/27 13:18:24;;;;;;;0.00;0.00;;;;;;;14.18;85.04;97737.59;4926844;28;20118;-75
2023/10/27 13:20:55;;;;;;;0.00;0.00;;;;;;;14.61;84.02;97721.28;4938642;28;20090;-75
2023/10/27 13:23:21;;;;;;;0.00;0.00;;;;;;;15.09;82.78;97767.94;4944444;28;20106;-78
2023/10/27 13:25:46;;;;;;;0.00;0.00;;;;;;;15.03;82.50;97739.91;4922627;28;20473;-77
2023/10/27 13:28:14;;;;;;;0.00;0.00;;;;;;;15.22;82.51;97761.13;4941656;28;20043;-76
2023/10/27 13:30:45;;;;;;;0.00;0.00;;;;;;;15.01;82.46;97739.50;4932470;28;20035;-77
2023/10/27 13:33:13;;;;;;;0.00;0.00;;;;;;;14.99;83.29;97734.31;4935746;28;20019;-76
2023/10/27 13:35:41;;;;;;;0.00;0.00;;;;;;;15.24;82.34;97747.00;4936269;28;20090;-78
2023/10/27 13:38:14;;;;;;;0.00;0.00;;;;;;;15.72;79.75;97747.53;4941350;28;20036;-78
2023/10/27 13:40:42;;;;;;;0.00;0.00;;;;;;;16.03;77.61;97720.94;4931942;28;20041;-76
2023/10/27 13:43:07;;;;;;;0.00;0.00;;;;;;;15.88;77.28;97731.72;4912483;28;20046;-77
2023/10/27 13:45:33;;;;;;;0.00;0.00;;;;;;;15.53;77.00;97751.91;4936974;28;20397;-77
2023/10/27 13:47:58;;;;;;;0.00;0.00;;;;;;;14.77;78.28;97733.06;4941275;28;20023;-75
2023/10/27 13:50:24;;;;;;;0.00;0.00;;;;;;;14.25;79.34;97751.50;4939049;28;20471;-75
2023/10/27 13:52:55;;;;;;;0.00;0.00;;;;;;;13.66;80.04;97739.41;4903484;28;20039;-74
2023/10/27 13:55:24;;;;;;;0.00;0.00;;;;;;;13.07;80.84;97736.22;4929339;28;20035;-77
2023/10/27 13:57:53;;;;;;;0.00;0.00;;;;;;;12.79;81.19;97740.88;4936921;28;20036;-75
2023/10/27 14:00:26;;;;;;;0.00;0.00;;;;;;;12.56;82.37;97724.94;4938494;28;20035;-77
2023/10/27 14:02:58;;;;;;;0.00;0.00;;;;;;;12.44;81.61;97735.88;4938848;28;20031;-78
2023/10/27 14:05:26;;;;;;;0.00;0.00;;;;;;;12.19;81.34;97719.44;4926440;28;20133;-76
2023/10/27 14:07:54;;;;;;;0.00;0.00;;;;;;;12.00;81.90;97722.75;4943370;28;20031;-76
2023/10/27 14:10:19;;;;;;;0.00;0.00;;;;;;;11.86;82.67;97712.13;4926115;28;20062;-76
2023/10/27 14:12:52;;;;;;;0.00;0.00;;;;;;;11.73;84.59;97714.03;4941717;28;20082;-78
2023/10/27 14:15:22;;;;;;;0.00;0.00;;;;;;;11.55;85.84;97702.50;4934998;28;20027;-77
2023/10/27 14:18:15;;;;;;;;;;;;;;;;;;;;;
2023/10/27 14:20:44;;;;;;;0.00;0.00;;;;;;;12.86;85.69;97719.13;4935973;28;21732;-76
2023/10/27 14:23:16;;;;;;;0.00;0.00;;;;;;;14.36;81.72;97715.22;4956228;28;20018;-77
2023/10/27 14:25:42;;;;;;;0.00;0.00;;;;;;;16.07;74.64;97713.53;4934129;28;20024;-76
2023/10/27 14:28:29;;;;;;;;;;;;;;;;;;;;;
2023/10/27 14:31:22;;;;;;;;;;;;;;;;;;;;;
2023/10/27 14:33:55;;;;;;;0.00;0.00;;;;;;;17.02;69.11;97755.94;4942615;28;20023;-76
2023/10/27 14:36:26;;;;;;;0.00;0.00;;;;;;;16.45;69.59;97738.56;4936447;28;20042;-76
2023/10/27 14:38:52;;;;;;;0.00;0.00;;;;;;;15.71;69.40;97721.16;4957166;28;20031;-78
2023/10/27 14:41:18;;;;;;;0.00;0.00;;;;;;;15.26;70.72;97714.41;4941104;28;20030;-74
2023/10/27 14:43:44;;;;;;;0.00;0.00;;;;;;;14.78;69.90;97726.41;4949503;28;20027;-75
2023/10/27 14:46:11;;;;;;;0.00;0.00;;;;;;;14.51;70.71;97730.09;4941227;28;20504;-75
2023/10/27 14:48:38;;;;;;;0.00;0.00;;;;;;;14.67;71.31;97730.88;4939029;28;20031;-77
2023/10/27 14:51:10;;;;;;;0.00;0.00;;;;;;;14.78;71.09;97737.41;4945171;28;20023;-76
2023/10/27 14:53:37;;;;;;;0.00;0.00;;;;;;;14.99;70.91;97742.56;4962509;28;20012;-77
2023/10/27 14:56:04;;;;;;;0.00;0.00;;;;;;;14.96;69.49;97743.28;4944940;28;20660;-77
2023/10/27 14:58:32;;;;;;;0.00;0.00;;;;;;;16.14;69.47;97721.91;4929130;28;20111;-76
2023/10/27 15:01:16;;;;;;;0.00;0.00;;;;;;;20.08;63.51;97745.53;4932088;29;20039;-79
2023/10/27 15:03:41;;;;;;;0.00;0.00;;;;;;;23.97;54.86;97751.34;4945857;28;20024;-78
2023/10/27 15:06:11;;;;;;;0.00;0.00;;;;;;;26.56;49.24;97734.25;4947278;28;20393;-77
2023/10/27 15:08:38;;;;;;;0.00;0.00;;;;;;;27.90;45.27;97734.16;4924628;28;20118;-78